Terminal Aerodrome Forecast
Issued by NWS Springfield, MO

Home | Current Version | Previous Version | Text Only | Print | Product List | Glossary On
Versions: 1 2 3 4 5 6 7 8 9 10 11 12 13 14 15 16 17 18 19 20 21 22 23 24 25 26 27
935
FTUS43 KSGF 201949 AAC
TAFSGF
TAF AMD
KSGF 201949Z 2020/2118 17015G20KT P6SM FEW025
     FM202100 19012G21KT P6SM SKC
     FM210000 18009KT P6SM FEW250
     FM210200 18008KT P6SM FEW250 WS020/22035KT
     FM211000 18010KT P6SM FEW250=

USA.gov is the U.S. government's official web portal to all federal, state and local government web resources and services.